Time;durP1;ratioP1;P1;durP2;ratioP2;P2;SDS_P1;SDS_P2;PMS_P1;PMS_P2;Temp;Humidity;BMP_temperature;BMP_pressure;BME280_temperature;BME280_humidity;BME280_pressure;Samples;Min_cycle;Max_cycle;Signal;HPM_P1;HPM_P2
2021/06/25 00:00:08;;;;;;;2.92;1.48;;;17.40;99.90;;;;;;5051876;28;20036;-83
2021/06/25 00:02:34;;;;;;;2.03;1.60;;;17.50;99.90;;;;;;5051885;28;20108;-83
2021/06/25 00:05:00;;;;;;;2.50;1.52;;;17.70;99.90;;;;;;5051794;28;20108;-83
2021/06/25 00:07:26;;;;;;;2.45;1.15;;;17.60;99.90;;;;;;5051807;28;20106;-83
2021/06/25 00:09:51;;;;;;;1.35;0.80;;;17.60;99.90;;;;;;5052118;28;20025;-83
2021/06/25 00:12:17;;;;;;;1.88;0.80;;;17.30;99.90;;;;;;5051706;28;20056;-83
2021/06/25 00:14:43;;;;;;;2.75;1.20;;;17.10;99.90;;;;;;5052993;28;20021;-83
2021/06/25 00:17:08;;;;;;;0.90;0.60;;;17.20;99.90;;;;;;5053005;28;20150;-83
2021/06/25 00:19:34;;;;;;;1.60;1.30;;;17.00;99.90;;;;;;5051908;28;20025;-83
2021/06/25 00:22:00;;;;;;;1.88;0.65;;;16.90;99.90;;;;;;5051770;28;20049;-83
2021/06/25 00:24:26;;;;;;;1.45;1.10;;;16.80;99.90;;;;;;5053181;28;20021;-83
2021/06/25 00:26:52;;;;;;;1.33;0.82;;;16.80;99.90;;;;;;5051671;28;20469;-83
2021/06/25 00:29:19;;;;;;;1.55;0.90;;;16.90;99.90;;;;;;5053010;28;20032;-83
2021/06/25 00:31:45;;;;;;;1.35;1.20;;;16.90;99.90;;;;;;5052882;28;20021;-83
2021/06/25 00:34:11;;;;;;;1.15;0.93;;;17.00;99.90;;;;;;5051478;28;20029;-83
2021/06/25 00:36:37;;;;;;;1.00;0.80;;;17.10;99.90;;;;;;5055313;28;20408;-83
2021/06/25 00:39:03;;;;;;;4.35;1.30;;;17.30;99.90;;;;;;5057163;28;20021;-83
2021/06/25 00:41:29;;;;;;;1.10;1.00;;;17.40;99.90;;;;;;5056443;28;20036;-83
2021/06/25 00:43:55;;;;;;;1.15;1.05;;;17.50;99.90;;;;;;5055139;28;20426;-83
2021/06/25 00:46:21;;;;;;;2.20;0.57;;;17.50;99.90;;;;;;5055131;28;20025;-83
2021/06/25 00:48:47;;;;;;;1.00;0.90;;;17.50;99.90;;;;;;5055057;28;20025;-83
2021/06/25 00:51:13;;;;;;;2.30;0.75;;;17.50;99.90;;;;;;5055047;28;20052;-83
2021/06/25 00:53:41;;;;;;;1.73;0.82;;;17.40;99.90;;;;;;5055045;28;20033;-83
2021/06/25 00:56:11;;;;;;;0.95;0.70;;;17.50;99.90;;;;;;5055774;28;20032;-83
2021/06/25 00:58:37;;;;;;;1.38;0.90;;;17.50;99.90;;;;;;5054929;28;20338;-83
2021/06/25 01:01:02;;;;;;;1.25;0.70;;;17.50;99.90;;;;;;5056153;28;20025;-82
2021/06/25 01:03:28;;;;;;;0.85;0.60;;;17.50;99.90;;;;;;5056088;28;20021;-83
2021/06/25 01:05:54;;;;;;;1.35;0.80;;;17.40;99.90;;;;;;5056074;28;20021;-83
2021/06/25 01:08:22;;;;;;;1.95;0.63;;;17.40;99.90;;;;;;5054738;28;20036;-83
2021/06/25 01:10:48;;;;;;;2.03;0.40;;;17.40;99.90;;;;;;5054710;28;20086;-83
2021/06/25 01:13:14;;;;;;;0.60;0.60;;;17.30;99.90;;;;;;5054657;28;20021;-83
2021/06/25 01:15:40;;;;;;;0.85;0.68;;;17.30;99.90;;;;;;5054530;28;20035;-83
2021/06/25 01:18:06;;;;;;;1.00;0.90;;;17.40;99.90;;;;;;5054535;28;20465;-83
2021/06/25 01:20:34;;;;;;;1.77;0.70;;;17.40;99.90;;;;;;5056103;28;20021;-83
2021/06/25 01:23:00;;;;;;;1.42;0.80;;;17.50;99.90;;;;;;5038097;28;20025;-83
2021/06/25 01:25:33;;;;;;;2.97;0.68;;;17.60;99.90;;;;;;5054426;28;20086;-83
2021/06/25 01:28:06;;;;;;;3.33;0.60;;;17.60;99.90;;;;;;5054669;28;20031;-83
2021/06/25 01:30:36;;;;;;;2.67;0.80;;;17.60;99.90;;;;;;5054358;28;20024;-82
2021/06/25 01:33:06;;;;;;;0.82;0.63;;;17.50;99.90;;;;;;5054561;28;20033;-83
2021/06/25 01:35:32;;;;;;;1.50;0.73;;;17.60;99.90;;;;;;5053947;28;20056;-83
2021/06/25 01:37:57;;;;;;;1.55;1.10;;;17.50;99.90;;;;;;5054238;28;20484;-83
2021/06/25 01:40:24;;;;;;;2.65;0.82;;;17.50;99.90;;;;;;5054169;28;20027;-83
2021/06/25 01:42:50;;;;;;;0.90;0.70;;;17.40;99.90;;;;;;5053602;28;20029;-83
2021/06/25 01:45:21;;;;;;;3.47;0.77;;;17.50;99.90;;;;;;5053593;28;20528;-83
2021/06/25 01:47:49;;;;;;;3.45;0.77;;;17.50;99.90;;;;;;5055876;28;20025;-82
2021/06/25 01:50:21;;;;;;;2.53;1.10;;;17.60;99.90;;;;;;5053964;28;20029;-82
2021/06/25 01:52:53;;;;;;;2.83;0.93;;;17.50;99.90;;;;;;5054031;28;20079;-83
2021/06/25 01:55:19;;;;;;;1.35;1.02;;;17.20;99.90;;;;;;5053947;28;20045;-82
2021/06/25 01:57:45;;;;;;;2.10;1.10;;;17.40;99.90;;;;;;5055816;28;20126;-82
2021/06/25 02:00:12;;;;;;;7.10;1.05;;;17.40;99.90;;;;;;5055875;28;20503;-83
2021/06/25 02:02:39;;;;;;;1.30;1.20;;;17.40;99.90;;;;;;5055497;28;20476;-83
2021/06/25 02:05:07;;;;;;;1.30;0.70;;;17.50;99.90;;;;;;5053951;28;20027;-82
2021/06/25 02:07:33;;;;;;;3.60;1.02;;;17.50;99.90;;;;;;5053590;28;20056;-83
2021/06/25 02:09:58;;;;;;;1.75;1.10;;;17.50;99.90;;;;;;5053628;28;20427;-83
2021/06/25 02:12:25;;;;;;;2.67;1.00;;;17.50;99.90;;;;;;5054935;28;20032;-83
2021/06/25 02:14:52;;;;;;;2.33;1.10;;;17.60;99.90;;;;;;5054795;28;20104;-82
2021/06/25 02:17:18;;;;;;;1.80;1.00;;;17.50;99.90;;;;;;5054597;28;20028;-82
2021/06/25 02:19:44;;;;;;;3.88;1.02;;;17.60;99.90;;;;;;5054671;28;20075;-83
2021/06/25 02:22:10;;;;;;;1.35;1.20;;;17.60;99.90;;;;;;5053369;28;20431;-82
2021/06/25 02:24:36;;;;;;;2.78;1.00;;;17.60;99.90;;;;;;5054542;28;20013;-83
2021/06/25 02:27:02;;;;;;;2.72;1.10;;;17.60;99.90;;;;;;5054788;28;20096;-83
2021/06/25 02:29:27;;;;;;;2.45;1.00;;;17.50;99.90;;;;;;5053112;28;20056;-83
2021/06/25 02:31:53;;;;;;;1.30;1.10;;;17.40;99.90;;;;;;5054447;28;20056;-83
2021/06/25 02:34:19;;;;;;;5.88;1.20;;;17.40;99.90;;;;;;5053005;28;20095;-83
2021/06/25 02:36:46;;;;;;;1.25;0.93;;;17.20;99.90;;;;;;5052772;28;20519;-83
2021/06/25 02:39:13;;;;;;;2.42;1.20;;;17.10;99.90;;;;;;5054264;28;20025;-83
2021/06/25 02:41:39;;;;;;;3.75;1.00;;;17.20;99.90;;;;;;5052963;28;20495;-83
2021/06/25 02:44:05;;;;;;;3.17;0.75;;;17.10;99.90;;;;;;5052932;28;20059;-83
2021/06/25 02:46:30;;;;;;;2.97;0.98;;;17.00;99.90;;;;;;5054109;28;20032;-83
2021/06/25 02:48:56;;;;;;;2.70;0.90;;;16.90;99.90;;;;;;5054633;28;20025;-83
2021/06/25 02:51:22;;;;;;;1.73;1.17;;;16.80;99.90;;;;;;5052761;28;20481;-83
2021/06/25 02:53:47;;;;;;;1.08;0.90;;;16.90;99.90;;;;;;5054004;28;20020;-83
2021/06/25 02:56:13;;;;;;;4.72;1.10;;;16.90;99.90;;;;;;5053863;28;20477;-83
2021/06/25 02:58:39;;;;;;;2.53;1.38;;;17.00;99.90;;;;;;5053126;28;20037;-83
2021/06/25 03:01:04;;;;;;;5.82;1.10;;;17.00;99.90;;;;;;5053861;28;20071;-83
2021/06/25 03:03:30;;;;;;;1.13;1.02;;;17.00;99.90;;;;;;5054142;28;20381;-83
2021/06/25 03:05:56;;;;;;;1.23;1.02;;;16.90;99.90;;;;;;5052462;28;20021;-83
2021/06/25 03:08:22;;;;;;;2.70;1.10;;;17.00;99.90;;;;;;5052441;28;20025;-82
2021/06/25 03:10:49;;;;;;;2.00;1.00;;;17.10;99.90;;;;;;5053650;28;20017;-83
2021/06/25 03:13:17;;;;;;;6.28;1.05;;;17.20;99.90;;;;;;5053696;28;20516;-82
2021/06/25 03:15:43;;;;;;;1.95;1.20;;;17.20;99.90;;;;;;5053601;28;20040;-82
2021/06/25 03:18:09;;;;;;;1.33;1.13;;;17.10;99.90;;;;;;5053524;28;20026;-81
2021/06/25 03:20:35;;;;;;;1.40;1.00;;;17.10;99.90;;;;;;5053589;28;20040;-81
2021/06/25 03:23:01;;;;;;;4.80;1.30;;;17.10;99.90;;;;;;5052195;28;20021;-81
2021/06/25 03:25:27;;;;;;;2.75;1.42;;;16.80;99.90;;;;;;5053437;28;20500;-81
2021/06/25 03:27:53;;;;;;;1.73;1.23;;;16.70;99.90;;;;;;5053381;28;20082;-81
2021/06/25 03:30:19;;;;;;;1.25;1.10;;;16.60;99.90;;;;;;5053434;28;20104;-81
2021/06/25 03:32:45;;;;;;;1.90;1.10;;;16.50;99.90;;;;;;5052122;28;20025;-82
2021/06/25 03:35:11;;;;;;;2.22;0.98;;;16.50;99.90;;;;;;5046721;28;20517;-82
2021/06/25 03:37:37;;;;;;;2.85;1.30;;;16.50;99.90;;;;;;5033583;28;20057;-82
2021/06/25 03:40:11;;;;;;;4.75;1.20;;;16.40;99.90;;;;;;5033384;28;20065;-83
2021/06/25 03:42:38;;;;;;;1.52;1.00;;;16.50;99.90;;;;;;5033650;28;20097;-83
2021/06/25 03:45:08;;;;;;;1.40;1.13;;;16.60;99.90;;;;;;5033344;28;20030;-82
2021/06/25 03:47:35;;;;;;;5.88;0.90;;;16.60;99.90;;;;;;5016428;28;20052;-83
2021/06/25 03:50:01;;;;;;;1.55;1.10;;;16.70;99.90;;;;;;5015836;28;20041;-83
2021/06/25 03:52:26;;;;;;;2.72;0.77;;;16.70;99.90;;;;;;5015590;28;20029;-83
2021/06/25 03:54:52;;;;;;;1.13;0.88;;;16.80;99.90;;;;;;5033230;28;20040;-83
2021/06/25 03:57:18;;;;;;;2.42;1.10;;;16.90;99.90;;;;;;5033104;28;20052;-83
2021/06/25 03:59:43;;;;;;;2.70;0.90;;;17.10;99.90;;;;;;5033186;28;20099;-83
2021/06/25 04:02:10;;;;;;;2.00;1.10;;;17.00;99.90;;;;;;5033120;28;20079;-83
2021/06/25 04:04:40;;;;;;;1.20;1.10;;;17.10;99.90;;;;;;5015477;28;20022;-83
2021/06/25 04:07:07;;;;;;;1.85;1.00;;;17.20;99.90;;;;;;5033134;28;20025;-83
2021/06/25 04:09:36;;;;;;;1.38;1.00;;;17.30;99.90;;;;;;5035591;28;20029;-83
2021/06/25 04:12:03;;;;;;;1.73;0.82;;;17.30;99.90;;;;;;5019413;28;20544;-83
2021/06/25 04:14:28;;;;;;;1.42;0.80;;;17.30;99.90;;;;;;5019253;28;20030;-83
2021/06/25 04:16:54;;;;;;;0.80;0.77;;;17.10;99.90;;;;;;5019260;28;20128;-83
2021/06/25 04:19:20;;;;;;;1.52;0.90;;;17.10;99.90;;;;;;5019234;28;20500;-83
2021/06/25 04:21:46;;;;;;;3.72;1.00;;;17.10;99.90;;;;;;5019188;28;20018;-82
2021/06/25 04:24:12;;;;;;;3.97;0.85;;;17.00;99.90;;;;;;5019100;28;20032;-82
2021/06/25 04:26:39;;;;;;;1.45;0.90;;;17.10;99.90;;;;;;5036836;28;20033;-82
2021/06/25 04:29:08;;;;;;;4.43;1.00;;;17.20;99.90;;;;;;5019047;28;20465;-82
2021/06/25 04:31:34;;;;;;;1.30;0.90;;;17.20;99.90;;;;;;5036754;28;20021;-82
2021/06/25 04:34:01;;;;;;;2.13;0.80;;;16.70;99.90;;;;;;5036623;28;20101;-82
2021/06/25 04:36:26;;;;;;;3.08;0.88;;;16.60;99.90;;;;;;5036456;28;20417;-82
2021/06/25 04:38:52;;;;;;;0.88;0.73;;;16.70;99.90;;;;;;5018860;28;20017;-83
2021/06/25 04:41:18;;;;;;;3.03;0.90;;;16.80;99.90;;;;;;5036823;28;20021;-82
2021/06/25 04:43:43;;;;;;;0.73;0.73;;;16.90;99.90;;;;;;5018747;28;20393;-82
2021/06/25 04:46:09;;;;;;;0.75;0.75;;;16.90;99.90;;;;;;5018753;28;20029;-82
2021/06/25 04:48:35;;;;;;;0.82;0.70;;;16.90;99.90;;;;;;5018718;28;20029;-82
2021/06/25 04:51:01;;;;;;;2.75;1.05;;;16.90;99.90;;;;;;5036368;28;20099;-82
2021/06/25 04:53:27;;;;;;;3.85;0.98;;;16.80;99.90;;;;;;5018664;28;20031;-82
2021/06/25 04:55:53;;;;;;;2.75;0.80;;;16.80;99.90;;;;;;5036425;28;20075;-82
2021/06/25 04:58:22;;;;;;;1.25;0.85;;;16.70;99.90;;;;;;5018457;28;20032;-83
2021/06/25 05:00:48;;;;;;;0.95;0.82;;;16.60;99.90;;;;;;5018408;28;20021;-82
2021/06/25 05:03:14;;;;;;;4.60;0.95;;;16.80;99.90;;;;;;5018660;28;20108;-82
2021/06/25 05:05:42;;;;;;;0.98;0.70;;;16.60;99.90;;;;;;5036073;28;20542;-81
2021/06/25 05:08:08;;;;;;;1.52;0.90;;;16.80;99.90;;;;;;5018301;28;20026;-82
2021/06/25 05:10:34;;;;;;;5.85;0.60;;;16.80;99.90;;;;;;5018242;28;20033;-82
2021/06/25 05:13:00;;;;;;;1.13;0.85;;;16.70;99.90;;;;;;5018228;28;20034;-83
2021/06/25 05:15:26;;;;;;;3.50;0.60;;;16.90;99.90;;;;;;5018115;28;20155;-82
2021/06/25 05:17:52;;;;;;;1.35;0.93;;;17.00;99.90;;;;;;5018024;28;20033;-82
2021/06/25 05:20:18;;;;;;;3.22;0.93;;;17.10;99.90;;;;;;5017255;28;20025;-82
2021/06/25 05:22:45;;;;;;;1.55;0.73;;;17.30;99.90;;;;;;5018016;28;20049;-82
2021/06/25 05:25:11;;;;;;;0.40;0.40;;;17.30;99.90;;;;;;5017995;28;20021;-82
2021/06/25 05:27:37;;;;;;;1.17;0.70;;;17.30;99.90;;;;;;5035641;28;20036;-82
2021/06/25 05:30:05;;;;;;;0.50;0.38;;;17.10;99.90;;;;;;5035691;28;20017;-82
2021/06/25 05:32:31;;;;;;;1.20;0.50;;;17.10;99.90;;;;;;5018201;28;20021;-82
2021/06/25 05:34:56;;;;;;;1.42;0.70;;;17.20;99.90;;;;;;5023047;28;20036;-82
2021/06/25 05:37:22;;;;;;;3.05;0.57;;;17.20;99.90;;;;;;5054099;28;20476;-82
2021/06/25 05:39:49;;;;;;;0.65;0.43;;;17.20;99.90;;;;;;5054144;28;20017;-82
2021/06/25 05:42:15;;;;;;;0.63;0.50;;;17.10;99.90;;;;;;5055411;28;20071;-82
2021/06/25 05:44:41;;;;;;;0.45;0.30;;;17.20;99.90;;;;;;5055364;28;20029;-82
2021/06/25 05:47:06;;;;;;;1.30;0.60;;;17.20;99.90;;;;;;5055312;28;20044;-82
2021/06/25 05:49:32;;;;;;;1.35;0.60;;;17.20;99.90;;;;;;5053962;28;20043;-82
2021/06/25 05:51:58;;;;;;;0.88;0.50;;;17.30;99.90;;;;;;5053911;28;20082;-82
2021/06/25 05:54:24;;;;;;;0.73;0.50;;;17.30;99.90;;;;;;5054123;28;20112;-81
2021/06/25 05:56:50;;;;;;;2.33;0.47;;;17.40;99.90;;;;;;5053740;28;20025;-82
2021/06/25 05:59:15;;;;;;;1.15;0.70;;;17.40;99.90;;;;;;5053831;28;20025;-82
2021/06/25 06:01:41;;;;;;;2.30;1.17;;;17.40;99.90;;;;;;5053708;28;20036;-82
2021/06/25 06:04:07;;;;;;;1.10;0.40;;;17.30;99.90;;;;;;5053704;28;20017;-82
2021/06/25 06:06:33;;;;;;;0.93;0.40;;;17.30;99.90;;;;;;5053652;28;20117;-82
2021/06/25 06:08:58;;;;;;;1.95;0.60;;;17.10;99.90;;;;;;5054917;28;20029;-82
2021/06/25 06:11:24;;;;;;;2.03;0.65;;;17.00;99.90;;;;;;5053548;28;20033;-82
2021/06/25 06:13:50;;;;;;;3.53;0.70;;;16.90;99.90;;;;;;5055007;28;20029;-82
2021/06/25 06:16:16;;;;;;;0.80;0.55;;;16.90;99.90;;;;;;5053482;28;20459;-82
2021/06/25 06:18:48;;;;;;;3.42;0.60;;;17.00;99.90;;;;;;5054695;28;20096;-82
2021/06/25 06:21:21;;;;;;;3.03;0.68;;;17.00;99.90;;;;;;5053417;28;20036;-82
2021/06/25 06:34:38;;;;;;;0.88;0.77;;;17.40;99.90;;;;;;5052555;28;20463;-82
2021/06/25 06:37:05;;;;;;;0.98;0.70;;;17.50;99.90;;;;;;5034727;28;20053;-83
2021/06/25 06:39:31;;;;;;;0.75;0.75;;;17.60;99.90;;;;;;5016733;28;20469;-83
2021/06/25 06:41:59;;;;;;;1.35;0.98;;;17.70;99.90;;;;;;5034277;28;20017;-83
2021/06/25 06:44:24;;;;;;;5.07;0.88;;;17.90;99.90;;;;;;5034196;28;20109;-83
2021/06/25 06:46:50;;;;;;;1.13;1.02;;;18.00;99.90;;;;;;5034150;28;20052;-82
2021/06/25 06:49:16;;;;;;;1.95;0.88;;;18.10;99.90;;;;;;5016354;28;20056;-82
2021/06/25 06:51:41;;;;;;;2.00;0.95;;;18.20;99.90;;;;;;5034019;28;20048;-82
2021/06/25 06:54:07;;;;;;;0.90;0.80;;;18.40;99.90;;;;;;5034032;28;20118;-83
2021/06/25 06:56:33;;;;;;;0.95;0.85;;;18.40;99.90;;;;;;5033897;28;20112;-83
2021/06/25 06:59:00;;;;;;;1.38;0.98;;;18.40;99.90;;;;;;5033999;28;20022;-83
2021/06/25 07:01:27;;;;;;;2.03;1.50;;;18.50;99.90;;;;;;5016145;28;20164;-82
2021/06/25 07:03:53;;;;;;;1.42;1.33;;;18.50;99.90;;;;;;5016196;28;20029;-82
2021/06/25 07:06:19;;;;;;;2.60;1.30;;;18.50;99.90;;;;;;5033869;28;20415;-82
2021/06/25 07:08:45;;;;;;;1.75;1.42;;;18.60;99.90;;;;;;5033853;28;20018;-82
2021/06/25 07:11:11;;;;;;;1.42;1.10;;;18.50;99.90;;;;;;5016083;28;20036;-82
2021/06/25 07:13:37;;;;;;;1.20;1.10;;;18.50;99.90;;;;;;5016375;28;20370;-83
2021/06/25 07:16:03;;;;;;;1.70;1.40;;;18.40;99.90;;;;;;5033606;28;20472;-82
2021/06/25 07:18:29;;;;;;;2.63;1.17;;;18.30;99.90;;;;;;5016249;28;20029;-82
2021/06/25 07:20:54;;;;;;;4.13;1.40;;;18.30;99.90;;;;;;5015846;28;20531;-82
2021/06/25 07:23:20;;;;;;;1.60;1.13;;;18.30;99.90;;;;;;5015885;28;20373;-82
2021/06/25 07:25:46;;;;;;;6.35;1.10;;;18.50;99.90;;;;;;5033588;28;20366;-82
2021/06/25 07:28:12;;;;;;;2.67;0.88;;;18.50;99.90;;;;;;5033553;28;20400;-82
2021/06/25 07:30:38;;;;;;;2.97;1.00;;;18.60;99.90;;;;;;5015807;28;20025;-82
2021/06/25 07:33:04;;;;;;;1.48;1.15;;;18.60;99.90;;;;;;5028321;28;20057;-82
2021/06/25 07:35:30;;;;;;;1.58;0.80;;;18.70;99.90;;;;;;5041907;28;20041;-84
2021/06/25 07:37:55;;;;;;;2.25;0.90;;;18.60;99.90;;;;;;5068189;28;20013;-83
2021/06/25 07:40:22;;;;;;;1.38;0.73;;;18.60;99.90;;;;;;5062207;28;20120;-83
2021/06/25 07:42:48;;;;;;;3.90;1.00;;;18.60;99.90;;;;;;5064500;28;20480;-83
2021/06/25 07:45:16;;;;;;;1.50;0.80;;;18.50;99.90;;;;;;5060577;28;20112;-83
2021/06/25 07:47:43;;;;;;;1.83;0.70;;;18.30;99.90;;;;;;5064894;28;20009;-83
2021/06/25 07:50:12;;;;;;;0.80;0.70;;;18.30;99.90;;;;;;5068523;28;20025;-83
2021/06/25 07:52:38;;;;;;;3.58;0.80;;;18.40;99.90;;;;;;5051168;28;20040;-83
2021/06/25 07:55:07;;;;;;;1.83;0.80;;;18.30;99.90;;;;;;5067246;28;20024;-83
2021/06/25 07:57:33;;;;;;;1.00;0.90;;;18.30;99.90;;;;;;5060229;28;20048;-83
2021/06/25 07:59:59;;;;;;;3.15;0.75;;;18.30;99.90;;;;;;5070813;28;20515;-83
2021/06/25 08:02:24;;;;;;;0.70;0.60;;;18.40;99.90;;;;;;5060595;28;20025;-84
2021/06/25 08:04:50;;;;;;;1.05;0.60;;;18.50;99.90;;;;;;5055264;28;20032;-84
2021/06/25 08:07:17;;;;;;;2.38;0.50;;;18.50;99.90;;;;;;5061607;28;20125;-83
2021/06/25 08:09:44;;;;;;;1.52;0.70;;;18.50;99.90;;;;;;5057196;28;20029;-84
2021/06/25 08:12:12;;;;;;;0.80;0.50;;;18.40;99.90;;;;;;5058379;28;20031;-83
2021/06/25 08:14:38;;;;;;;0.75;0.60;;;18.50;99.90;;;;;;5064923;28;20029;-84
2021/06/25 08:17:05;;;;;;;2.88;0.70;;;18.60;99.90;;;;;;5059647;28;20083;-84
2021/06/25 08:19:32;;;;;;;0.73;0.73;;;18.40;99.90;;;;;;5061600;28;20041;-83
2021/06/25 08:21:58;;;;;;;1.13;0.95;;;18.40;99.90;;;;;;5056968;28;20033;-83
2021/06/25 08:24:24;;;;;;;0.65;0.47;;;18.50;99.90;;;;;;5054389;28;20407;-83
2021/06/25 08:26:50;;;;;;;1.13;0.63;;;18.60;99.90;;;;;;5055433;28;20025;-83
2021/06/25 08:29:16;;;;;;;1.02;0.70;;;18.80;99.90;;;;;;5054838;28;20032;-83
2021/06/25 08:31:42;;;;;;;1.92;0.85;;;18.90;99.90;;;;;;5054966;28;20100;-83
2021/06/25 08:34:11;;;;;;;1.23;0.80;;;18.90;99.90;;;;;;5054333;28;20083;-83
2021/06/25 08:36:38;;;;;;;0.70;0.70;;;18.80;99.90;;;;;;5052561;28;20041;-83
2021/06/25 08:39:04;;;;;;;1.70;0.90;;;18.60;99.90;;;;;;5053337;28;20060;-82
2021/06/25 08:41:32;;;;;;;1.20;0.93;;;18.50;99.90;;;;;;5051775;28;20029;-83
2021/06/25 08:43:58;;;;;;;0.82;0.82;;;18.50;99.90;;;;;;5051883;28;20481;-82
2021/06/25 08:46:30;;;;;;;2.25;0.90;;;18.60;99.90;;;;;;5053191;28;20025;-83
2021/06/25 08:48:57;;;;;;;1.63;0.98;;;18.50;99.90;;;;;;5051689;28;20078;-83
2021/06/25 08:51:24;;;;;;;1.20;0.90;;;18.60;99.90;;;;;;5053363;28;20028;-83
2021/06/25 08:53:51;;;;;;;1.13;1.02;;;18.70;99.90;;;;;;5052623;28;20396;-83
2021/06/25 08:56:17;;;;;;;1.60;1.10;;;18.70;99.90;;;;;;5053079;28;20526;-82
2021/06/25 08:58:43;;;;;;;1.20;1.08;;;18.90;99.90;;;;;;5056143;28;20024;-82
2021/06/25 09:01:10;;;;;;;1.35;1.08;;;18.80;99.90;;;;;;5055132;28;20029;-83
2021/06/25 09:03:40;;;;;;;2.65;1.20;;;18.50;99.90;;;;;;5056147;28;20025;-82
2021/06/25 09:06:15;;;;;;;2.97;1.38;;;18.20;99.90;;;;;;5054787;28;20021;-83
2021/06/25 09:08:42;;;;;;;1.27;1.17;;;18.20;99.90;;;;;;5054802;28;20387;-83
2021/06/25 09:11:16;;;;;;;1.70;1.40;;;18.20;99.90;;;;;;5055979;28;20379;-83
2021/06/25 09:13:42;;;;;;;2.15;1.60;;;18.10;99.90;;;;;;5055042;28;20017;-82
2021/06/25 09:16:27;;;;;;;1.55;1.40;;;18.10;99.90;;;;;;5054601;28;20017;-82
2021/06/25 09:19:07;;;;;;;;;;;18.10;99.90;;;;;;5057600;28;20041;-83
2021/06/25 09:21:39;;;;;;;3.28;1.70;;;18.00;99.90;;;;;;5056412;28;20406;-85
2021/06/25 09:24:22;;;;;;;2.58;1.70;;;18.00;99.90;;;;;;5056339;28;20131;-86
2021/06/25 09:26:49;;;;;;;1.80;1.60;;;17.90;99.90;;;;;;5055804;28;20079;-84
2021/06/25 09:29:20;;;;;;;1.92;1.67;;;17.80;99.90;;;;;;5054591;28;20025;-85
2021/06/25 09:31:56;;;;;;;2.40;2.00;;;18.00;99.90;;;;;;5055650;28;20043;-85
2021/06/25 09:34:39;;;;;;;4.15;1.60;;;18.10;99.90;;;;;;5055698;28;20025;-85
2021/06/25 09:37:07;;;;;;;1.83;1.70;;;18.30;99.90;;;;;;5056066;28;20029;-84
2021/06/25 09:39:33;;;;;;;2.20;2.00;;;18.20;99.90;;;;;;5056032;28;20100;-85
2021/06/25 09:41:59;;;;;;;2.75;1.98;;;18.20;99.90;;;;;;5055881;28;20100;-85
2021/06/25 09:44:25;;;;;;;2.22;2.03;;;18.10;99.90;;;;;;5054407;28;20017;-85
2021/06/25 09:46:53;;;;;;;2.10;1.90;;;18.10;99.90;;;;;;5054328;28;20032;-86
2021/06/25 09:49:31;;;;;;;1.98;1.67;;;18.10;99.90;;;;;;5054275;28;20025;-85
2021/06/25 09:51:59;;;;;;;2.28;2.08;;;18.20;99.90;;;;;;5054019;28;20025;-85
2021/06/25 09:54:26;;;;;;;2.70;2.17;;;18.30;99.90;;;;;;5054047;28;20445;-85
2021/06/25 09:59:31;;;;;;;2.58;2.20;;;18.50;99.90;;;;;;5055420;28;20079;-85
2021/06/25 10:02:22;;;;;;;2.60;2.13;;;18.60;99.90;;;;;;5055173;28;20017;-85
2021/06/25 10:05:00;;;;;;;2.50;1.80;;;18.70;99.90;;;;;;5054957;28;20068;-85
2021/06/25 10:07:31;;;;;;;2.35;1.80;;;18.80;99.90;;;;;;5054767;28;20025;-85
2021/06/25 10:10:07;;;;;;;2.63;1.80;;;19.10;99.90;;;;;;5053651;28;20021;-84
2021/06/25 10:12:36;;;;;;;2.17;1.77;;;19.30;99.90;;;;;;5053700;28;20503;-84
2021/06/25 10:15:03;;;;;;;1.95;1.75;;;19.60;99.90;;;;;;5054412;28;20451;-84
2021/06/25 10:17:30;;;;;;;1.90;1.70;;;20.00;99.90;;;;;;5055645;28;20047;-84
2021/06/25 10:20:03;;;;;;;4.40;1.80;;;20.20;99.90;;;;;;5054149;28;20021;-84
2021/06/25 10:22:30;;;;;;;1.83;1.60;;;20.10;99.90;;;;;;5054240;28;20132;-84
2021/06/25 10:24:56;;;;;;;4.80;1.77;;;20.20;99.90;;;;;;5055027;28;20377;-85
2021/06/25 10:27:23;;;;;;;2.08;1.70;;;20.10;99.90;;;;;;5053297;28;20032;-84
2021/06/25 10:29:51;;;;;;;2.70;2.17;;;20.20;99.90;;;;;;5054578;28;20518;-85
2021/06/25 10:32:18;;;;;;;2.50;1.60;;;20.00;99.90;;;;;;5053158;28;20108;-85
2021/06/25 10:34:45;;;;;;;1.85;1.35;;;19.80;99.90;;;;;;5051739;28;20033;-85
2021/06/25 10:37:20;;;;;;;2.60;1.38;;;19.70;99.90;;;;;;5034371;28;20041;-85
2021/06/25 10:39:45;;;;;;;2.08;1.58;;;19.50;99.90;;;;;;5016729;28;20028;-85
2021/06/25 10:42:11;;;;;;;3.05;1.40;;;19.20;99.90;;;;;;5016644;28;20112;-85
2021/06/25 10:44:41;;;;;;;2.83;1.40;;;19.20;99.90;;;;;;5034273;28;20092;-85
2021/06/25 10:47:15;;;;;;;3.83;1.67;;;19.20;99.90;;;;;;5034247;28;20045;-85
2021/06/25 10:50:19;;;;;;;2.80;1.67;;;19.00;99.90;;;;;;5034412;28;20095;-84
2021/06/25 10:53:12;;;;;;;2.10;1.50;;;19.00;99.90;;;;;;4976361;28;20030;-84
2021/06/25 10:55:45;;;;;;;1.98;1.77;;;18.90;99.90;;;;;;5034057;28;20017;-85
2021/06/25 10:58:18;;;;;;;2.42;1.60;;;19.00;99.90;;;;;;5016260;28;20397;-85
2021/06/25 11:00:49;;;;;;;2.00;1.77;;;19.10;99.90;;;;;;5034398;28;20494;-85
2021/06/25 11:03:37;;;;;;;2.13;1.40;;;19.00;99.90;;;;;;5016322;28;20091;-85
2021/06/25 11:06:09;;;;;;;2.15;1.52;;;18.80;99.90;;;;;;5033945;28;20026;-84
2021/06/25 11:08:36;;;;;;;2.33;1.55;;;18.90;99.90;;;;;;5016389;28;20026;-84
2021/06/25 11:11:02;;;;;;;1.63;1.40;;;18.90;99.90;;;;;;5016319;28;20079;-84
2021/06/25 11:13:29;;;;;;;1.30;1.20;;;18.90;99.90;;;;;;5034168;28;20017;-84
2021/06/25 11:16:02;;;;;;;2.45;1.30;;;19.00;99.90;;;;;;5016405;28;20030;-84
2021/06/25 11:18:29;;;;;;;1.85;1.48;;;19.20;99.90;;;;;;5033410;28;20355;-84
2021/06/25 11:21:00;;;;;;;2.35;1.50;;;19.20;99.90;;;;;;5033900;28;20024;-84
2021/06/25 11:23:38;;;;;;;1.30;1.20;;;19.30;99.90;;;;;;5034154;28;20461;-85
2021/06/25 11:26:13;;;;;;;1.38;1.20;;;19.20;99.90;;;;;;5015967;28;20112;-84
2021/06/25 11:28:43;;;;;;;4.43;1.13;;;19.40;99.90;;;;;;5035244;28;20024;-83
2021/06/25 11:34:00;;;;;;;2.13;1.20;;;19.70;99.90;;;;;;5038114;28;20065;-84
2021/06/25 11:36:56;;;;;;;2.35;1.10;;;19.60;99.90;;;;;;5049034;28;20045;-83
2021/06/25 11:39:34;;;;;;;3.03;1.10;;;19.70;99.90;;;;;;5039449;28;20064;-84
2021/06/25 11:42:22;;;;;;;1.20;1.10;;;19.70;99.90;;;;;;5053491;28;20048;-84
2021/06/25 11:44:50;;;;;;;1.45;1.10;;;19.70;99.90;;;;;;5053405;28;20590;-84
2021/06/25 11:47:29;;;;;;;1.40;1.20;;;20.10;99.90;;;;;;5052106;28;20029;-85
2021/06/25 11:52:27;;;;;;;1.25;1.10;;;20.30;99.90;;;;;;5053558;28;20025;-83
2021/06/25 11:54:56;;;;;;;1.27;1.00;;;19.90;99.90;;;;;;5052056;28;20049;-84
2021/06/25 11:57:30;;;;;;;1.52;1.15;;;20.00;99.90;;;;;;5051983;28;20067;-84
2021/06/25 12:00:10;;;;;;;1.65;1.05;;;20.00;99.90;;;;;;5053879;28;20021;-83
2021/06/25 12:02:42;;;;;;;1.58;1.10;;;20.10;99.90;;;;;;5053319;28;20029;-84
2021/06/25 12:05:10;;;;;;;1.20;1.00;;;20.60;99.90;;;;;;5053229;28;20044;-85
2021/06/25 12:07:36;;;;;;;1.00;0.90;;;20.90;99.90;;;;;;5053678;28;20060;-82
2021/06/25 12:10:03;;;;;;;1.20;0.95;;;21.00;99.90;;;;;;5052555;28;20149;-84
2021/06/25 12:12:33;;;;;;;1.27;0.98;;;20.80;99.90;;;;;;5052469;28;20111;-84
2021/06/25 12:15:01;;;;;;;0.80;0.70;;;20.80;99.90;;;;;;5052604;28;20064;-83
2021/06/25 12:17:47;;;;;;;4.75;1.00;;;21.00;99.90;;;;;;5053233;28;20039;-84
2021/06/25 12:20:12;;;;;;;1.60;0.63;;;20.90;99.90;;;;;;5053217;28;20075;-84
2021/06/25 12:22:52;;;;;;;1.00;0.77;;;20.60;99.90;;;;;;5052030;28;20029;-85
2021/06/25 12:25:41;;;;;;;0.77;0.77;;;20.50;99.90;;;;;;5053574;28;20013;-84
2021/06/25 12:28:21;;;;;;;1.40;0.90;;;20.50;99.90;;;;;;5053400;28;20052;-84
2021/06/25 12:30:48;;;;;;;1.02;0.70;;;20.80;99.90;;;;;;5055372;28;20033;-84
2021/06/25 12:33:16;;;;;;;1.20;0.50;;;21.30;99.90;;;;;;5055788;28;20392;-84
2021/06/25 12:35:48;;;;;;;1.33;0.70;;;21.50;99.90;;;;;;5055378;28;20080;-85
2021/06/25 12:38:17;;;;;;;1.00;0.65;;;21.90;99.90;;;;;;5055397;28;20040;-84
2021/06/25 12:40:47;;;;;;;0.60;0.60;;;22.00;99.90;;;;;;5055418;28;20086;-85
2021/06/25 12:43:33;;;;;;;2.45;0.93;;;22.00;99.90;;;;;;5055207;28;20021;-84
2021/06/25 12:46:13;;;;;;;0.90;0.75;;;21.90;99.90;;;;;;5055317;28;20489;-84
2021/06/25 12:48:48;;;;;;;0.70;0.70;;;21.80;99.90;;;;;;5055268;28;20079;-84
2021/06/25 12:51:22;;;;;;;2.08;0.60;;;21.70;99.90;;;;;;5055214;28;20029;-84
2021/06/25 12:53:54;;;;;;;;;;;21.30;99.90;;;;;;5055613;28;20021;-85
2021/06/25 12:56:23;;;;;;;1.02;0.80;;;21.00;99.90;;;;;;5055055;28;19904;-85
2021/06/25 12:58:55;;;;;;;2.08;1.20;;;20.90;99.90;;;;;;5056282;28;20021;-84
2021/06/25 13:01:21;;;;;;;1.35;0.98;;;20.70;99.90;;;;;;5055550;28;20025;-85
2021/06/25 13:03:47;;;;;;;1.38;1.20;;;20.50;99.90;;;;;;5055018;28;20416;-84
2021/06/25 13:06:31;;;;;;;3.53;1.30;;;20.40;99.90;;;;;;5038091;28;20369;-84
2021/06/25 13:08:58;;;;;;;1.67;1.17;;;20.60;99.90;;;;;;5056134;28;20545;-84
2021/06/25 13:11:28;;;;;;;13.00;1.88;;;20.60;99.90;;;;;;5054867;28;20025;-84